sensor_id;sensor_type;location;lat;lon;timestamp;temperature;humidity
12039;DHT22;6080;48.818;9.526;2022-11-20T00:00:09;6.20;99.90
12039;DHT22;6080;48.818;9.526;2022-11-20T00:02:36;6.10;99.90
12039;DHT22;6080;48.818;9.526;2022-11-20T00:05:02;6.10;99.90
12039;DHT22;6080;48.818;9.526;2022-11-20T00:07:29;6.10;99.90
12039;DHT22;6080;48.818;9.526;2022-11-20T00:09:55;6.00;99.90
12039;DHT22;6080;48.818;9.526;2022-11-20T00:12:20;6.00;99.90
12039;DHT22;6080;48.818;9.526;2022-11-20T00:14:46;5.90;99.90
12039;DHT22;6080;48.818;9.526;2022-11-20T00:17:12;5.80;99.90
12039;DHT22;6080;48.818;9.526;2022-11-20T00:19:37;5.80;99.90
12039;DHT22;6080;48.818;9.526;2022-11-20T00:22:03;5.80;99.90
12039;DHT22;6080;48.818;9.526;2022-11-20T00:24:29;5.80;99.90
12039;DHT22;6080;48.818;9.526;2022-11-20T00:26:55;5.70;99.90
12039;DHT22;6080;48.818;9.526;2022-11-20T00:29:20;5.70;99.90
12039;DHT22;6080;48.818;9.526;2022-11-20T00:31:46;5.70;99.90
12039;DHT22;6080;48.818;9.526;2022-11-20T00:34:12;5.70;99.90
12039;DHT22;6080;48.818;9.526;2022-11-20T00:36:38;5.70;99.90
12039;DHT22;6080;48.818;9.526;2022-11-20T00:39:03;5.70;99.90
12039;DHT22;6080;48.818;9.526;2022-11-20T00:41:29;5.60;99.90
12039;DHT22;6080;48.818;9.526;2022-11-20T00:43:55;5.70;99.90
12039;DHT22;6080;48.818;9.526;2022-11-20T00:46:24;5.70;99.90
12039;DHT22;6080;48.818;9.526;2022-11-20T00:48:49;5.70;99.90
12039;DHT22;6080;48.818;9.526;2022-11-20T00:51:18;5.70;99.90
12039;DHT22;6080;48.818;9.526;2022-11-20T00:53:45;5.70;99.90
12039;DHT22;6080;48.818;9.526;2022-11-20T00:56:12;5.70;99.90
12039;DHT22;6080;48.818;9.526;2022-11-20T00:58:40;5.70;99.90
12039;DHT22;6080;48.818;9.526;2022-11-20T01:01:09;5.70;99.90
12039;DHT22;6080;48.818;9.526;2022-11-20T01:03:37;5.70;99.90
12039;DHT22;6080;48.818;9.526;2022-11-20T01:06:16;5.80;99.90
12039;DHT22;6080;48.818;9.526;2022-11-20T01:08:43;5.80;99.90
12039;DHT22;6080;48.818;9.526;2022-11-20T01:11:15;5.80;99.90
12039;DHT22;6080;48.818;9.526;2022-11-20T01:13:42;5.80;99.90
12039;DHT22;6080;48.818;9.526;2022-11-20T01:16:20;5.80;99.90
12039;DHT22;6080;48.818;9.526;2022-11-20T01:18:48;5.80;99.90
12039;DHT22;6080;48.818;9.526;2022-11-20T01:23:45;5.90;99.90
12039;DHT22;6080;48.818;9.526;2022-11-20T01:26:28;5.90;99.90
12039;DHT22;6080;48.818;9.526;2022-11-20T01:28:55;5.90;99.90
12039;DHT22;6080;48.818;9.526;2022-11-20T01:31:31;5.90;99.90
12039;DHT22;6080;48.818;9.526;2022-11-20T01:34:00;5.90;99.90
12039;DHT22;6080;48.818;9.526;2022-11-20T01:36:28;5.90;99.90
12039;DHT22;6080;48.818;9.526;2022-11-20T01:39:00;5.90;99.90
12039;DHT22;6080;48.818;9.526;2022-11-20T01:41:29;6.00;99.90
12039;DHT22;6080;48.818;9.526;2022-11-20T01:44:16;6.00;99.90
12039;DHT22;6080;48.818;9.526;2022-11-20T01:49:20;6.00;99.90
12039;DHT22;6080;48.818;9.526;2022-11-20T01:52:37;6.00;99.90
12039;DHT22;6080;48.818;9.526;2022-11-20T01:55:01;5.90;99.90
12039;DHT22;6080;48.818;9.526;2022-11-20T01:57:31;5.90;99.90
12039;DHT22;6080;48.818;9.526;2022-11-20T02:00:11;6.00;99.90
12039;DHT22;6080;48.818;9.526;2022-11-20T02:02:38;6.00;99.90
12039;DHT22;6080;48.818;9.526;2022-11-20T02:05:16;6.00;99.90
12039;DHT22;6080;48.818;9.526;2022-11-20T02:07:43;6.00;99.90
12039;DHT22;6080;48.818;9.526;2022-11-20T02:10:09;6.00;99.90
12039;DHT22;6080;48.818;9.526;2022-11-20T02:12:39;6.00;99.90
12039;DHT22;6080;48.818;9.526;2022-11-20T02:15:24;5.90;99.90
12039;DHT22;6080;48.818;9.526;2022-11-20T02:17:50;5.80;99.90
12039;DHT22;6080;48.818;9.526;2022-11-20T02:20:18;5.70;99.90
12039;DHT22;6080;48.818;9.526;2022-11-20T02:23:04;5.70;99.90
12039;DHT22;6080;48.818;9.526;2022-11-20T02:25:31;5.60;99.90
12039;DHT22;6080;48.818;9.526;2022-11-20T02:27:58;5.50;99.90
12039;DHT22;6080;48.818;9.526;2022-11-20T02:30:24;5.50;99.90
12039;DHT22;6080;48.818;9.526;2022-11-20T02:32:50;5.60;99.90
12039;DHT22;6080;48.818;9.526;2022-11-20T02:37:48;5.50;99.90
12039;DHT22;6080;48.818;9.526;2022-11-20T02:40:14;5.50;99.90
12039;DHT22;6080;48.818;9.526;2022-11-20T02:42:40;5.50;99.90
12039;DHT22;6080;48.818;9.526;2022-11-20T02:45:06;5.50;99.90
12039;DHT22;6080;48.818;9.526;2022-11-20T02:47:32;5.50;99.90
12039;DHT22;6080;48.818;9.526;2022-11-20T02:49:58;5.60;99.90
12039;DHT22;6080;48.818;9.526;2022-11-20T02:52:25;5.60;99.90
12039;DHT22;6080;48.818;9.526;2022-11-20T02:54:51;5.60;99.90
12039;DHT22;6080;48.818;9.526;2022-11-20T02:57:17;5.70;99.90
12039;DHT22;6080;48.818;9.526;2022-11-20T02:59:42;5.80;99.90
12039;DHT22;6080;48.818;9.526;2022-11-20T03:02:08;5.80;99.90
12039;DHT22;6080;48.818;9.526;2022-11-20T03:04:34;5.80;99.90
12039;DHT22;6080;48.818;9.526;2022-11-20T03:07:00;5.80;99.90
12039;DHT22;6080;48.818;9.526;2022-11-20T03:09:25;5.90;99.90
12039;DHT22;6080;48.818;9.526;2022-11-20T03:11:51;5.90;99.90
12039;DHT22;6080;48.818;9.526;2022-11-20T03:14:17;6.00;99.90
12039;DHT22;6080;48.818;9.526;2022-11-20T03:16:43;6.00;99.90
12039;DHT22;6080;48.818;9.526;2022-11-20T03:19:14;6.00;99.90
12039;DHT22;6080;48.818;9.526;2022-11-20T03:21:40;6.00;99.90
12039;DHT22;6080;48.818;9.526;2022-11-20T03:24:06;6.00;99.90
12039;DHT22;6080;48.818;9.526;2022-11-20T03:26:32;6.10;99.90
12039;DHT22;6080;48.818;9.526;2022-11-20T03:29:01;6.10;99.90
12039;DHT22;6080;48.818;9.526;2022-11-20T03:31:38;6.00;99.90
12039;DHT22;6080;48.818;9.526;2022-11-20T03:34:09;6.00;99.90
12039;DHT22;6080;48.818;9.526;2022-11-20T03:36:37;6.10;99.90
12039;DHT22;6080;48.818;9.526;2022-11-20T03:39:03;6.10;99.90
12039;DHT22;6080;48.818;9.526;2022-11-20T03:41:31;6.10;99.90
12039;DHT22;6080;48.818;9.526;2022-11-20T03:43:59;6.10;99.90
12039;DHT22;6080;48.818;9.526;2022-11-20T03:46:25;6.20;99.90
12039;DHT22;6080;48.818;9.526;2022-11-20T03:48:52;6.20;99.90
12039;DHT22;6080;48.818;9.526;2022-11-20T03:51:23;6.20;99.90
12039;DHT22;6080;48.818;9.526;2022-11-20T03:53:50;6.20;99.90
12039;DHT22;6080;48.818;9.526;2022-11-20T03:56:18;6.20;99.90
12039;DHT22;6080;48.818;9.526;2022-11-20T03:58:44;6.20;99.90
12039;DHT22;6080;48.818;9.526;2022-11-20T04:01:14;6.20;99.90
12039;DHT22;6080;48.818;9.526;2022-11-20T04:03:41;6.20;99.90
12039;DHT22;6080;48.818;9.526;2022-11-20T04:06:14;6.20;99.90
12039;DHT22;6080;48.818;9.526;2022-11-20T04:08:40;6.20;99.90
12039;DHT22;6080;48.818;9.526;2022-11-20T04:11:14;6.20;99.90
12039;DHT22;6080;48.818;9.526;2022-11-20T04:13:41;6.20;99.90
12039;DHT22;6080;48.818;9.526;2022-11-20T04:16:09;6.20;99.90
12039;DHT22;6080;48.818;9.526;2022-11-20T04:18:35;6.20;99.90
12039;DHT22;6080;48.818;9.526;2022-11-20T04:21:02;6.20;99.90
12039;DHT22;6080;48.818;9.526;2022-11-20T04:23:28;6.20;99.90
12039;DHT22;6080;48.818;9.526;2022-11-20T04:25:54;6.20;99.90
12039;DHT22;6080;48.818;9.526;2022-11-20T04:28:20;6.30;99.90
12039;DHT22;6080;48.818;9.526;2022-11-20T04:30:46;6.30;99.90
12039;DHT22;6080;48.818;9.526;2022-11-20T04:33:12;6.30;99.90
12039;DHT22;6080;48.818;9.526;2022-11-20T04:35:37;6.30;99.90
12039;DHT22;6080;48.818;9.526;2022-11-20T04:38:04;6.30;99.90
12039;DHT22;6080;48.818;9.526;2022-11-20T04:40:30;6.40;99.90
12039;DHT22;6080;48.818;9.526;2022-11-20T04:42:56;6.40;99.90
12039;DHT22;6080;48.818;9.526;2022-11-20T04:45:22;6.40;99.90
12039;DHT22;6080;48.818;9.526;2022-11-20T04:47:48;6.40;99.90
12039;DHT22;6080;48.818;9.526;2022-11-20T04:50:15;6.50;99.90
12039;DHT22;6080;48.818;9.526;2022-11-20T04:52:41;6.40;99.90
12039;DHT22;6080;48.818;9.526;2022-11-20T04:55:08;6.40;99.90
12039;DHT22;6080;48.818;9.526;2022-11-20T04:57:33;6.40;99.90
12039;DHT22;6080;48.818;9.526;2022-11-20T04:59:59;6.40;99.90
12039;DHT22;6080;48.818;9.526;2022-11-20T05:02:25;6.40;99.90
12039;DHT22;6080;48.818;9.526;2022-11-20T05:04:51;6.40;99.90
12039;DHT22;6080;48.818;9.526;2022-11-20T05:07:16;6.40;99.90
12039;DHT22;6080;48.818;9.526;2022-11-20T05:09:42;6.50;99.90
12039;DHT22;6080;48.818;9.526;2022-11-20T05:12:09;6.50;99.90
12039;DHT22;6080;48.818;9.526;2022-11-20T05:14:35;6.50;99.90
12039;DHT22;6080;48.818;9.526;2022-11-20T05:17:01;6.40;99.90
12039;DHT22;6080;48.818;9.526;2022-11-20T05:19:27;6.40;99.90
12039;DHT22;6080;48.818;9.526;2022-11-20T05:21:53;6.40;99.90
12039;DHT22;6080;48.818;9.526;2022-11-20T05:24:18;6.40;99.90
12039;DHT22;6080;48.818;9.526;2022-11-20T05:26:44;6.40;99.90
12039;DHT22;6080;48.818;9.526;2022-11-20T05:29:13;6.40;99.90
12039;DHT22;6080;48.818;9.526;2022-11-20T05:31:40;6.40;99.90
12039;DHT22;6080;48.818;9.526;2022-11-20T05:34:07;6.40;99.90
12039;DHT22;6080;48.818;9.526;2022-11-20T05:36:34;6.40;99.90
12039;DHT22;6080;48.818;9.526;2022-11-20T05:38:59;6.40;99.90
12039;DHT22;6080;48.818;9.526;2022-11-20T05:41:25;6.50;99.90
12039;DHT22;6080;48.818;9.526;2022-11-20T05:43:51;6.50;99.90
12039;DHT22;6080;48.818;9.526;2022-11-20T05:46:19;6.50;99.90
12039;DHT22;6080;48.818;9.526;2022-11-20T05:48:46;6.50;99.90
12039;DHT22;6080;48.818;9.526;2022-11-20T05:51:16;6.50;99.90
12039;DHT22;6080;48.818;9.526;2022-11-20T05:53:42;6.50;99.90
12039;DHT22;6080;48.818;9.526;2022-11-20T05:56:13;6.50;99.90
12039;DHT22;6080;48.818;9.526;2022-11-20T05:58:39;6.50;99.90
12039;DHT22;6080;48.818;9.526;2022-11-20T06:01:11;6.50;99.90
12039;DHT22;6080;48.818;9.526;2022-11-20T06:03:38;6.50;99.90
12039;DHT22;6080;48.818;9.526;2022-11-20T06:06:05;6.50;99.90
12039;DHT22;6080;48.818;9.526;2022-11-20T06:08:32;6.50;99.90
12039;DHT22;6080;48.818;9.526;2022-11-20T06:10:58;6.50;99.90
12039;DHT22;6080;48.818;9.526;2022-11-20T06:13:28;6.50;99.90
12039;DHT22;6080;48.818;9.526;2022-11-20T06:15:53;6.50;99.90
12039;DHT22;6080;48.818;9.526;2022-11-20T06:18:20;6.50;99.90
12039;DHT22;6080;48.818;9.526;2022-11-20T06:20:47;6.50;99.90
12039;DHT22;6080;48.818;9.526;2022-11-20T06:23:13;6.50;99.90
12039;DHT22;6080;48.818;9.526;2022-11-20T06:25:40;6.50;99.90
12039;DHT22;6080;48.818;9.526;2022-11-20T06:28:07;6.50;99.90
12039;DHT22;6080;48.818;9.526;2022-11-20T06:30:33;6.50;99.90
12039;DHT22;6080;48.818;9.526;2022-11-20T06:32:59;6.50;99.90
12039;DHT22;6080;48.818;9.526;2022-11-20T06:35:25;6.60;99.90
12039;DHT22;6080;48.818;9.526;2022-11-20T06:37:50;6.60;99.90
12039;DHT22;6080;48.818;9.526;2022-11-20T06:40:16;6.60;99.90
12039;DHT22;6080;48.818;9.526;2022-11-20T06:42:42;6.60;99.90
12039;DHT22;6080;48.818;9.526;2022-11-20T06:45:09;6.60;99.90
12039;DHT22;6080;48.818;9.526;2022-11-20T06:47:35;6.60;99.90
12039;DHT22;6080;48.818;9.526;2022-11-20T06:50:01;6.60;99.90
12039;DHT22;6080;48.818;9.526;2022-11-20T06:52:27;6.60;99.90
12039;DHT22;6080;48.818;9.526;2022-11-20T06:54:52;6.60;99.90
12039;DHT22;6080;48.818;9.526;2022-11-20T06:57:18;6.60;99.90
12039;DHT22;6080;48.818;9.526;2022-11-20T06:59:44;6.60;99.90
12039;DHT22;6080;48.818;9.526;2022-11-20T07:02:11;6.70;99.90
12039;DHT22;6080;48.818;9.526;2022-11-20T07:04:38;6.70;99.90
12039;DHT22;6080;48.818;9.526;2022-11-20T07:07:04;6.70;99.90
12039;DHT22;6080;48.818;9.526;2022-11-20T07:09:29;6.70;99.90
12039;DHT22;6080;48.818;9.526;2022-11-20T07:11:55;6.70;99.90
12039;DHT22;6080;48.818;9.526;2022-11-20T07:14:21;6.70;99.90
12039;DHT22;6080;48.818;9.526;2022-11-20T07:16:47;6.70;99.90
12039;DHT22;6080;48.818;9.526;2022-11-20T07:19:12;6.70;99.90
12039;DHT22;6080;48.818;9.526;2022-11-20T07:21:38;6.70;99.90
12039;DHT22;6080;48.818;9.526;2022-11-20T07:24:04;6.80;99.90
12039;DHT22;6080;48.818;9.526;2022-11-20T07:26:30;6.80;99.90
12039;DHT22;6080;48.818;9.526;2022-11-20T07:28:55;6.80;99.90
12039;DHT22;6080;48.818;9.526;2022-11-20T07:31:21;6.80;99.90
12039;DHT22;6080;48.818;9.526;2022-11-20T07:33:48;6.80;99.90
12039;DHT22;6080;48.818;9.526;2022-11-20T07:36:13;6.90;99.90
12039;DHT22;6080;48.818;9.526;2022-11-20T07:38:39;7.00;99.90
12039;DHT22;6080;48.818;9.526;2022-11-20T07:41:05;7.00;99.90
12039;DHT22;6080;48.818;9.526;2022-11-20T07:43:31;7.10;99.90
12039;DHT22;6080;48.818;9.526;2022-11-20T07:45:58;7.10;99.90
12039;DHT22;6080;48.818;9.526;2022-11-20T07:48:24;7.10;99.90
12039;DHT22;6080;48.818;9.526;2022-11-20T07:50:54;7.20;99.90
12039;DHT22;6080;48.818;9.526;2022-11-20T07:53:20;7.20;99.90
12039;DHT22;6080;48.818;9.526;2022-11-20T07:55:47;7.20;99.90
12039;DHT22;6080;48.818;9.526;2022-11-20T07:58:13;7.30;99.90
12039;DHT22;6080;48.818;9.526;2022-11-20T08:00:42;7.30;99.90
12039;DHT22;6080;48.818;9.526;2022-11-20T08:03:07;7.40;99.90
12039;DHT22;6080;48.818;9.526;2022-11-20T08:05:33;7.40;99.90
12039;DHT22;6080;48.818;9.526;2022-11-20T08:07:59;7.50;99.90
12039;DHT22;6080;48.818;9.526;2022-11-20T08:10:25;7.60;99.90
12039;DHT22;6080;48.818;9.526;2022-11-20T08:12:52;7.70;99.90
12039;DHT22;6080;48.818;9.526;2022-11-20T08:15:39;7.80;99.90
12039;DHT22;6080;48.818;9.526;2022-11-20T08:18:10;7.90;99.90
12039;DHT22;6080;48.818;9.526;2022-11-20T08:20:37;7.80;99.90
12039;DHT22;6080;48.818;9.526;2022-11-20T08:23:07;7.70;99.90
12039;DHT22;6080;48.818;9.526;2022-11-20T08:25:35;7.70;99.90
12039;DHT22;6080;48.818;9.526;2022-11-20T08:28:03;7.80;99.90
12039;DHT22;6080;48.818;9.526;2022-11-20T08:30:29;7.80;99.90
12039;DHT22;6080;48.818;9.526;2022-11-20T08:33:01;7.60;99.90
12039;DHT22;6080;48.818;9.526;2022-11-20T08:35:28;7.60;99.90
12039;DHT22;6080;48.818;9.526;2022-11-20T08:37:54;7.60;99.90
12039;DHT22;6080;48.818;9.526;2022-11-20T08:40:20;7.60;99.90
12039;DHT22;6080;48.818;9.526;2022-11-20T08:42:49;7.80;99.90
12039;DHT22;6080;48.818;9.526;2022-11-20T08:45:16;7.80;99.90
12039;DHT22;6080;48.818;9.526;2022-11-20T08:47:42;7.90;99.90
12039;DHT22;6080;48.818;9.526;2022-11-20T08:50:13;7.90;99.90
12039;DHT22;6080;48.818;9.526;2022-11-20T08:52:39;7.80;99.90
12039;DHT22;6080;48.818;9.526;2022-11-20T08:55:06;7.90;99.90
12039;DHT22;6080;48.818;9.526;2022-11-20T08:57:35;8.00;99.90
12039;DHT22;6080;48.818;9.526;2022-11-20T09:00:03;8.00;99.90
12039;DHT22;6080;48.818;9.526;2022-11-20T09:02:29;8.00;99.90
12039;DHT22;6080;48.818;9.526;2022-11-20T09:04:55;8.00;99.90
12039;DHT22;6080;48.818;9.526;2022-11-20T09:07:21;8.00;99.90
12039;DHT22;6080;48.818;9.526;2022-11-20T09:09:46;7.90;99.90
12039;DHT22;6080;48.818;9.526;2022-11-20T09:12:13;7.90;99.90
12039;DHT22;6080;48.818;9.526;2022-11-20T09:14:39;7.90;99.90
12039;DHT22;6080;48.818;9.526;2022-11-20T09:17:05;8.00;99.90
12039;DHT22;6080;48.818;9.526;2022-11-20T09:19:33;8.00;99.90
12039;DHT22;6080;48.818;9.526;2022-11-20T09:21:59;8.00;99.90
12039;DHT22;6080;48.818;9.526;2022-11-20T09:24:26;8.00;99.90
12039;DHT22;6080;48.818;9.526;2022-11-20T09:26:52;7.90;99.90
12039;DHT22;6080;48.818;9.526;2022-11-20T09:29:18;7.80;99.90
12039;DHT22;6080;48.818;9.526;2022-11-20T09:31:44;7.70;99.90
12039;DHT22;6080;48.818;9.526;2022-11-20T09:34:09;7.60;99.90
12039;DHT22;6080;48.818;9.526;2022-11-20T09:36:36;7.60;99.90
12039;DHT22;6080;48.818;9.526;2022-11-20T09:39:02;7.50;99.90
12039;DHT22;6080;48.818;9.526;2022-11-20T09:48:01;7.60;99.90
12039;DHT22;6080;48.818;9.526;2022-11-20T09:50:35;7.70;99.90
12039;DHT22;6080;48.818;9.526;2022-11-20T09:56:17;7.60;99.90
12039;DHT22;6080;48.818;9.526;2022-11-20T09:58:52;7.60;99.90
12039;DHT22;6080;48.818;9.526;2022-11-20T10:01:20;7.60;99.90
12039;DHT22;6080;48.818;9.526;2022-11-20T10:04:03;7.60;99.90
12039;DHT22;6080;48.818;9.526;2022-11-20T10:06:31;7.70;99.90
12039;DHT22;6080;48.818;9.526;2022-11-20T10:09:18;7.70;99.90
12039;DHT22;6080;48.818;9.526;2022-11-20T10:17:24;7.70;99.90
12039;DHT22;6080;48.818;9.526;2022-11-20T10:20:08;7.80;99.90
12039;DHT22;6080;48.818;9.526;2022-11-20T10:22:46;7.80;99.90
12039;DHT22;6080;48.818;9.526;2022-11-20T10:25:23;7.90;99.90
12039;DHT22;6080;48.818;9.526;2022-11-20T10:30:44;7.90;99.90
12039;DHT22;6080;48.818;9.526;2022-11-20T10:33:22;7.80;99.90
12039;DHT22;6080;48.818;9.526;2022-11-20T10:38:54;7.70;99.90
12039;DHT22;6080;48.818;9.526;2022-11-20T10:41:29;7.70;99.90
12039;DHT22;6080;48.818;9.526;2022-11-20T10:44:24;7.60;99.90
12039;DHT22;6080;48.818;9.526;2022-11-20T10:47:17;7.50;99.90
12039;DHT22;6080;48.818;9.526;2022-11-20T10:49:46;7.40;99.90
12039;DHT22;6080;48.818;9.526;2022-11-20T10:52:34;7.30;99.90
12039;DHT22;6080;48.818;9.526;2022-11-20T10:55:23;7.20;99.90
12039;DHT22;6080;48.818;9.526;2022-11-20T10:58:05;7.20;99.90
12039;DHT22;6080;48.818;9.526;2022-11-20T11:00:34;7.10;99.90
12039;DHT22;6080;48.818;9.526;2022-11-20T11:03:00;7.00;99.90
12039;DHT22;6080;48.818;9.526;2022-11-20T11:08:38;6.90;99.90
12039;DHT22;6080;48.818;9.526;2022-11-20T11:11:20;7.00;99.90
12039;DHT22;6080;48.818;9.526;2022-11-20T11:13:47;7.00;99.90
12039;DHT22;6080;48.818;9.526;2022-11-20T11:16:26;7.00;99.90
12039;DHT22;6080;48.818;9.526;2022-11-20T11:19:06;6.90;99.90
12039;DHT22;6080;48.818;9.526;2022-11-20T11:21:32;6.90;99.90
12039;DHT22;6080;48.818;9.526;2022-11-20T11:27:01;6.80;99.90
12039;DHT22;6080;48.818;9.526;2022-11-20T11:29:33;6.80;99.90
12039;DHT22;6080;48.818;9.526;2022-11-20T11:32:18;6.80;99.90
12039;DHT22;6080;48.818;9.526;2022-11-20T11:35:02;6.80;99.90
12039;DHT22;6080;48.818;9.526;2022-11-20T11:37:34;6.70;99.90
12039;DHT22;6080;48.818;9.526;2022-11-20T11:40:02;6.70;99.90
12039;DHT22;6080;48.818;9.526;2022-11-20T11:42:29;6.80;99.90
12039;DHT22;6080;48.818;9.526;2022-11-20T11:44:58;6.70;99.90
12039;DHT22;6080;48.818;9.526;2022-11-20T11:58:52;7.40;99.90
12039;DHT22;6080;48.818;9.526;2022-11-20T12:01:47;7.60;99.90
12039;DHT22;6080;48.818;9.526;2022-11-20T12:04:46;8.40;99.90
12039;DHT22;6080;48.818;9.526;2022-11-20T12:07:35;10.50;99.90
12039;DHT22;6080;48.818;9.526;2022-11-20T12:10:03;12.10;99.90
12039;DHT22;6080;48.818;9.526;2022-11-20T12:12:54;12.30;99.90
12039;DHT22;6080;48.818;9.526;2022-11-20T12:15:30;11.40;99.90
12039;DHT22;6080;48.818;9.526;2022-11-20T12:17:56;11.40;99.90
12039;DHT22;6080;48.818;9.526;2022-11-20T12:20:27;12.60;99.90
12039;DHT22;6080;48.818;9.526;2022-11-20T12:25:40;15.20;99.90
12039;DHT22;6080;48.818;9.526;2022-11-20T12:28:30;14.20;99.90
12039;DHT22;6080;48.818;9.526;2022-11-20T12:31:24;13.20;99.90
12039;DHT22;6080;48.818;9.526;2022-11-20T12:45:25;12.60;99.90
12039;DHT22;6080;48.818;9.526;2022-11-20T12:53:52;10.80;99.90
12039;DHT22;6080;48.818;9.526;2022-11-20T12:56:44;10.50;99.90
12039;DHT22;6080;48.818;9.526;2022-11-20T13:07:33;10.50;99.90
12039;DHT22;6080;48.818;9.526;2022-11-20T13:10:00;10.40;99.90
12039;DHT22;6080;48.818;9.526;2022-11-20T13:12:30;10.70;99.90
12039;DHT22;6080;48.818;9.526;2022-11-20T13:17:59;10.60;99.90
12039;DHT22;6080;48.818;9.526;2022-11-20T13:20:26;11.20;99.90
12039;DHT22;6080;48.818;9.526;2022-11-20T13:22:54;13.10;99.90
12039;DHT22;6080;48.818;9.526;2022-11-20T13:25:26;14.10;99.90
12039;DHT22;6080;48.818;9.526;2022-11-20T13:27:53;14.70;99.90
12039;DHT22;6080;48.818;9.526;2022-11-20T13:30:26;14.20;99.90
12039;DHT22;6080;48.818;9.526;2022-11-20T13:32:54;12.70;99.90
12039;DHT22;6080;48.818;9.526;2022-11-20T13:35:36;11.50;99.90
12039;DHT22;6080;48.818;9.526;2022-11-20T13:38:11;10.50;99.90
12039;DHT22;6080;48.818;9.526;2022-11-20T13:40:51;10.00;99.90
12039;DHT22;6080;48.818;9.526;2022-11-20T13:46:01;9.90;99.90
12039;DHT22;6080;48.818;9.526;2022-11-20T13:48:38;9.60;99.90
12039;DHT22;6080;48.818;9.526;2022-11-20T13:51:29;9.40;99.90
12039;DHT22;6080;48.818;9.526;2022-11-20T14:02:18;11.60;99.90
12039;DHT22;6080;48.818;9.526;2022-11-20T14:04:49;11.40;99.90
12039;DHT22;6080;48.818;9.526;2022-11-20T14:07:18;10.80;99.90
12039;DHT22;6080;48.818;9.526;2022-11-20T14:09:55;10.20;99.90
12039;DHT22;6080;48.818;9.526;2022-11-20T14:12:30;9.80;99.90
12039;DHT22;6080;48.818;9.526;2022-11-20T14:14:57;9.60;99.90
12039;DHT22;6080;48.818;9.526;2022-11-20T14:17:34;9.50;99.90
12039;DHT22;6080;48.818;9.526;2022-11-20T14:20:06;9.50;99.90
12039;DHT22;6080;48.818;9.526;2022-11-20T14:22:32;9.30;99.90
12039;DHT22;6080;48.818;9.526;2022-11-20T14:25:23;9.20;99.90
12039;DHT22;6080;48.818;9.526;2022-11-20T14:30:36;9.20;99.90
12039;DHT22;6080;48.818;9.526;2022-11-20T14:33:03;9.10;99.90
12039;DHT22;6080;48.818;9.526;2022-11-20T14:35:34;9.00;99.90
12039;DHT22;6080;48.818;9.526;2022-11-20T14:38:01;9.00;99.90
12039;DHT22;6080;48.818;9.526;2022-11-20T14:40:28;8.90;99.90
12039;DHT22;6080;48.818;9.526;2022-11-20T14:42:55;8.90;99.90
12039;DHT22;6080;48.818;9.526;2022-11-20T14:45:22;8.80;99.90
12039;DHT22;6080;48.818;9.526;2022-11-20T14:47:48;8.80;99.90
12039;DHT22;6080;48.818;9.526;2022-11-20T14:52:57;8.60;99.90
12039;DHT22;6080;48.818;9.526;2022-11-20T14:55:35;8.50;99.90
12039;DHT22;6080;48.818;9.526;2022-11-20T14:58:23;8.30;99.90
12039;DHT22;6080;48.818;9.526;2022-11-20T15:01:00;8.20;99.90
12039;DHT22;6080;48.818;9.526;2022-11-20T15:03:33;8.10;99.90
12039;DHT22;6080;48.818;9.526;2022-11-20T15:05:59;8.10;99.90
12039;DHT22;6080;48.818;9.526;2022-11-20T15:08:25;8.00;99.90
12039;DHT22;6080;48.818;9.526;2022-11-20T15:10:51;7.90;99.90
12039;DHT22;6080;48.818;9.526;2022-11-20T15:15:54;7.80;99.90
12039;DHT22;6080;48.818;9.526;2022-11-20T15:18:31;7.70;99.90
12039;DHT22;6080;48.818;9.526;2022-11-20T15:21:00;7.60;99.90
12039;DHT22;6080;48.818;9.526;2022-11-20T15:23:27;7.60;99.90
12039;DHT22;6080;48.818;9.526;2022-11-20T15:25:54;7.50;99.90
12039;DHT22;6080;48.818;9.526;2022-11-20T15:29:02;7.50;99.90
12039;DHT22;6080;48.818;9.526;2022-11-20T15:31:13;7.50;99.90
12039;DHT22;6080;48.818;9.526;2022-11-20T15:33:40;7.50;99.90
12039;DHT22;6080;48.818;9.526;2022-11-20T15:36:06;7.40;99.90
12039;DHT22;6080;48.818;9.526;2022-11-20T15:38:31;7.50;99.90
12039;DHT22;6080;48.818;9.526;2022-11-20T15:40:57;7.50;99.90
12039;DHT22;6080;48.818;9.526;2022-11-20T15:43:23;7.40;99.90
12039;DHT22;6080;48.818;9.526;2022-11-20T15:46:00;7.30;99.90
12039;DHT22;6080;48.818;9.526;2022-11-20T15:48:30;7.30;99.90
12039;DHT22;6080;48.818;9.526;2022-11-20T15:53:41;7.10;99.90
12039;DHT22;6080;48.818;9.526;2022-11-20T15:56:14;7.00;99.90
12039;DHT22;6080;48.818;9.526;2022-11-20T15:58:40;6.90;99.90
12039;DHT22;6080;48.818;9.526;2022-11-20T16:01:11;6.80;99.90
12039;DHT22;6080;48.818;9.526;2022-11-20T16:03:37;6.80;99.90
12039;DHT22;6080;48.818;9.526;2022-11-20T16:06:04;6.80;99.90
12039;DHT22;6080;48.818;9.526;2022-11-20T16:08:30;6.70;99.90
12039;DHT22;6080;48.818;9.526;2022-11-20T16:10:55;6.60;99.90
12039;DHT22;6080;48.818;9.526;2022-11-20T16:13:21;6.60;99.90
12039;DHT22;6080;48.818;9.526;2022-11-20T16:16:11;6.50;99.90
12039;DHT22;6080;48.818;9.526;2022-11-20T16:18:37;6.40;99.90
12039;DHT22;6080;48.818;9.526;2022-11-20T16:21:03;6.40;99.90
12039;DHT22;6080;48.818;9.526;2022-11-20T16:23:29;6.30;99.90
12039;DHT22;6080;48.818;9.526;2022-11-20T16:25:55;6.30;99.90
12039;DHT22;6080;48.818;9.526;2022-11-20T16:28:21;6.20;99.90
12039;DHT22;6080;48.818;9.526;2022-11-20T16:30:46;6.20;99.90
12039;DHT22;6080;48.818;9.526;2022-11-20T16:33:15;6.10;99.90
12039;DHT22;6080;48.818;9.526;2022-11-20T16:35:42;6.00;99.90
12039;DHT22;6080;48.818;9.526;2022-11-20T16:38:08;6.00;99.90
12039;DHT22;6080;48.818;9.526;2022-11-20T16:40:35;6.00;99.90
12039;DHT22;6080;48.818;9.526;2022-11-20T16:43:12;6.00;99.90
12039;DHT22;6080;48.818;9.526;2022-11-20T16:45:43;6.00;99.90
12039;DHT22;6080;48.818;9.526;2022-11-20T16:48:14;6.10;99.90
12039;DHT22;6080;48.818;9.526;2022-11-20T16:50:51;6.10;99.90
12039;DHT22;6080;48.818;9.526;2022-11-20T16:53:19;6.20;99.90
12039;DHT22;6080;48.818;9.526;2022-11-20T16:55:45;6.20;99.90
12039;DHT22;6080;48.818;9.526;2022-11-20T16:58:11;6.20;99.90
12039;DHT22;6080;48.818;9.526;2022-11-20T17:00:38;6.30;99.90
12039;DHT22;6080;48.818;9.526;2022-11-20T17:03:07;6.30;99.90
12039;DHT22;6080;48.818;9.526;2022-11-20T17:05:33;6.30;99.90
12039;DHT22;6080;48.818;9.526;2022-11-20T17:08:00;6.30;99.90
12039;DHT22;6080;48.818;9.526;2022-11-20T17:10:26;6.30;99.90
12039;DHT22;6080;48.818;9.526;2022-11-20T17:12:51;6.30;99.90
12039;DHT22;6080;48.818;9.526;2022-11-20T17:15:17;6.30;99.90
12039;DHT22;6080;48.818;9.526;2022-11-20T17:17:43;6.40;99.90
12039;DHT22;6080;48.818;9.526;2022-11-20T17:20:09;6.40;99.90
12039;DHT22;6080;48.818;9.526;2022-11-20T17:22:37;6.50;99.90
12039;DHT22;6080;48.818;9.526;2022-11-20T17:25:03;6.50;99.90
12039;DHT22;6080;48.818;9.526;2022-11-20T17:27:29;6.50;99.90
12039;DHT22;6080;48.818;9.526;2022-11-20T17:29:55;6.50;99.90
12039;DHT22;6080;48.818;9.526;2022-11-20T17:32:23;6.40;99.90
12039;DHT22;6080;48.818;9.526;2022-11-20T17:34:49;6.40;99.90
12039;DHT22;6080;48.818;9.526;2022-11-20T17:37:15;6.40;99.90
12039;DHT22;6080;48.818;9.526;2022-11-20T17:39:41;6.40;99.90
12039;DHT22;6080;48.818;9.526;2022-11-20T17:42:07;6.30;99.90
12039;DHT22;6080;48.818;9.526;2022-11-20T17:44:51;6.30;99.90
12039;DHT22;6080;48.818;9.526;2022-11-20T17:47:17;6.30;99.90
12039;DHT22;6080;48.818;9.526;2022-11-20T17:49:42;6.30;99.90
12039;DHT22;6080;48.818;9.526;2022-11-20T17:52:08;6.30;99.90